sensor_id;sensor_type;location;lat;lon;timestamp;P1;durP1;ratioP1;P2;durP2;ratioP2
51382;SDS011;37475;43.358;1.248;2022-10-16T00:01:09;11.95;;;7.55;;
51382;SDS011;37475;43.358;1.248;2022-10-16T00:03:40;10.15;;;7.45;;
51382;SDS011;37475;43.358;1.248;2022-10-16T00:06:08;14.68;;;7.45;;
51382;SDS011;37475;43.358;1.248;2022-10-16T00:08:35;10.32;;;7.60;;
51382;SDS011;37475;43.358;1.248;2022-10-16T00:11:07;10.43;;;6.75;;
51382;SDS011;37475;43.358;1.248;2022-10-16T00:13:37;11.80;;;6.97;;
51382;SDS011;37475;43.358;1.248;2022-10-16T00:16:05;9.93;;;6.65;;
51382;SDS011;37475;43.358;1.248;2022-10-16T00:18:33;10.25;;;7.05;;
51382;SDS011;37475;43.358;1.248;2022-10-16T00:21:03;12.55;;;7.57;;
51382;SDS011;37475;43.358;1.248;2022-10-16T00:23:32;13.00;;;7.00;;
51382;SDS011;37475;43.358;1.248;2022-10-16T00:25:59;12.55;;;7.80;;
51382;SDS011;37475;43.358;1.248;2022-10-16T00:28:29;14.52;;;7.55;;
51382;SDS011;37475;43.358;1.248;2022-10-16T00:30:55;11.25;;;7.60;;
51382;SDS011;37475;43.358;1.248;2022-10-16T00:33:22;11.95;;;7.15;;
51382;SDS011;37475;43.358;1.248;2022-10-16T00:35:48;10.90;;;7.72;;
51382;SDS011;37475;43.358;1.248;2022-10-16T00:38:15;12.48;;;7.43;;
51382;SDS011;37475;43.358;1.248;2022-10-16T00:40:41;10.02;;;7.00;;
51382;SDS011;37475;43.358;1.248;2022-10-16T00:43:14;11.90;;;7.68;;
51382;SDS011;37475;43.358;1.248;2022-10-16T00:46:10;11.65;;;7.50;;
51382;SDS011;37475;43.358;1.248;2022-10-16T00:48:42;11.32;;;6.70;;
51382;SDS011;37475;43.358;1.248;2022-10-16T00:51:28;11.48;;;7.10;;
51382;SDS011;37475;43.358;1.248;2022-10-16T00:54:17;14.82;;;7.78;;
51382;SDS011;37475;43.358;1.248;2022-10-16T00:56:55;13.32;;;7.47;;
51382;SDS011;37475;43.358;1.248;2022-10-16T00:59:26;10.55;;;7.32;;
51382;SDS011;37475;43.358;1.248;2022-10-16T01:02:01;10.57;;;7.55;;
51382;SDS011;37475;43.358;1.248;2022-10-16T01:04:31;11.27;;;7.05;;
51382;SDS011;37475;43.358;1.248;2022-10-16T01:21:22;9.57;;;7.20;;
51382;SDS011;37475;43.358;1.248;2022-10-16T01:27:09;11.07;;;6.97;;
51382;SDS011;37475;43.358;1.248;2022-10-16T01:30:07;10.50;;;7.10;;
51382;SDS011;37475;43.358;1.248;2022-10-16T01:32:46;9.27;;;6.78;;
51382;SDS011;37475;43.358;1.248;2022-10-16T01:35:44;13.07;;;7.80;;
51382;SDS011;37475;43.358;1.248;2022-10-16T01:38:21;10.93;;;7.32;;
51382;SDS011;37475;43.358;1.248;2022-10-16T01:41:00;11.85;;;7.65;;
51382;SDS011;37475;43.358;1.248;2022-10-16T01:43:35;13.10;;;7.68;;
51382;SDS011;37475;43.358;1.248;2022-10-16T01:46:10;14.93;;;7.93;;
51382;SDS011;37475;43.358;1.248;2022-10-16T01:48:39;13.55;;;7.95;;
51382;SDS011;37475;43.358;1.248;2022-10-16T01:51:08;12.32;;;7.65;;
51382;SDS011;37475;43.358;1.248;2022-10-16T01:53:38;14.23;;;7.75;;
51382;SDS011;37475;43.358;1.248;2022-10-16T01:56:07;13.35;;;7.90;;
51382;SDS011;37475;43.358;1.248;2022-10-16T01:58:37;15.13;;;8.45;;
51382;SDS011;37475;43.358;1.248;2022-10-16T02:01:12;14.88;;;8.32;;
51382;SDS011;37475;43.358;1.248;2022-10-16T02:03:42;12.98;;;7.75;;
51382;SDS011;37475;43.358;1.248;2022-10-16T02:06:09;14.82;;;7.95;;
51382;SDS011;37475;43.358;1.248;2022-10-16T02:08:36;11.40;;;8.18;;
51382;SDS011;37475;43.358;1.248;2022-10-16T02:11:05;14.52;;;9.10;;
51382;SDS011;37475;43.358;1.248;2022-10-16T02:16:06;14.85;;;8.20;;
51382;SDS011;37475;43.358;1.248;2022-10-16T02:18:32;12.32;;;8.48;;
51382;SDS011;37475;43.358;1.248;2022-10-16T02:21:16;15.05;;;8.73;;
51382;SDS011;37475;43.358;1.248;2022-10-16T02:24:02;14.25;;;8.35;;
51382;SDS011;37475;43.358;1.248;2022-10-16T02:26:51;13.02;;;8.95;;
51382;SDS011;37475;43.358;1.248;2022-10-16T02:29:26;14.43;;;8.55;;
51382;SDS011;37475;43.358;1.248;2022-10-16T02:31:55;14.82;;;9.32;;
51382;SDS011;37475;43.358;1.248;2022-10-16T02:34:27;13.98;;;8.48;;
51382;SDS011;37475;43.358;1.248;2022-10-16T02:36:57;13.00;;;8.45;;
51382;SDS011;37475;43.358;1.248;2022-10-16T02:39:25;13.25;;;8.65;;
51382;SDS011;37475;43.358;1.248;2022-10-16T02:41:53;15.88;;;8.43;;
51382;SDS011;37475;43.358;1.248;2022-10-16T02:44:19;13.98;;;8.90;;
51382;SDS011;37475;43.358;1.248;2022-10-16T02:46:45;12.45;;;8.18;;
51382;SDS011;37475;43.358;1.248;2022-10-16T02:49:10;16.50;;;8.98;;
51382;SDS011;37475;43.358;1.248;2022-10-16T02:51:36;12.82;;;8.68;;
51382;SDS011;37475;43.358;1.248;2022-10-16T02:54:02;15.93;;;8.98;;
51382;SDS011;37475;43.358;1.248;2022-10-16T02:56:28;14.82;;;9.30;;
51382;SDS011;37475;43.358;1.248;2022-10-16T02:58:55;14.43;;;8.35;;
51382;SDS011;37475;43.358;1.248;2022-10-16T03:01:22;14.20;;;8.77;;
51382;SDS011;37475;43.358;1.248;2022-10-16T03:03:48;13.40;;;8.45;;
51382;SDS011;37475;43.358;1.248;2022-10-16T03:06:14;12.43;;;8.23;;
51382;SDS011;37475;43.358;1.248;2022-10-16T03:08:40;15.50;;;8.80;;
51382;SDS011;37475;43.358;1.248;2022-10-16T03:11:06;13.95;;;8.80;;
51382;SDS011;37475;43.358;1.248;2022-10-16T03:13:32;14.07;;;8.90;;
51382;SDS011;37475;43.358;1.248;2022-10-16T03:15:58;15.13;;;9.25;;
51382;SDS011;37475;43.358;1.248;2022-10-16T03:18:24;14.43;;;9.25;;
51382;SDS011;37475;43.358;1.248;2022-10-16T03:20:49;15.75;;;9.00;;
51382;SDS011;37475;43.358;1.248;2022-10-16T03:23:15;16.98;;;9.45;;
51382;SDS011;37475;43.358;1.248;2022-10-16T03:25:41;14.98;;;9.57;;
51382;SDS011;37475;43.358;1.248;2022-10-16T03:28:07;16.77;;;9.48;;
51382;SDS011;37475;43.358;1.248;2022-10-16T03:30:33;14.85;;;9.07;;
51382;SDS011;37475;43.358;1.248;2022-10-16T03:32:59;17.83;;;9.65;;
51382;SDS011;37475;43.358;1.248;2022-10-16T03:35:24;16.80;;;8.98;;
51382;SDS011;37475;43.358;1.248;2022-10-16T03:37:50;20.20;;;9.75;;
51382;SDS011;37475;43.358;1.248;2022-10-16T03:40:16;18.25;;;9.65;;
51382;SDS011;37475;43.358;1.248;2022-10-16T03:42:43;16.38;;;9.90;;
51382;SDS011;37475;43.358;1.248;2022-10-16T03:45:09;15.35;;;9.93;;
51382;SDS011;37475;43.358;1.248;2022-10-16T03:47:36;16.55;;;9.32;;
51382;SDS011;37475;43.358;1.248;2022-10-16T03:50:02;20.02;;;9.98;;
51382;SDS011;37475;43.358;1.248;2022-10-16T03:52:29;18.42;;;10.02;;
51382;SDS011;37475;43.358;1.248;2022-10-16T03:54:55;19.20;;;9.93;;
51382;SDS011;37475;43.358;1.248;2022-10-16T03:57:21;16.83;;;9.50;;
51382;SDS011;37475;43.358;1.248;2022-10-16T03:59:47;15.38;;;9.75;;
51382;SDS011;37475;43.358;1.248;2022-10-16T04:02:13;14.35;;;9.70;;
51382;SDS011;37475;43.358;1.248;2022-10-16T04:04:38;18.85;;;10.00;;
51382;SDS011;37475;43.358;1.248;2022-10-16T04:07:04;16.10;;;10.20;;
51382;SDS011;37475;43.358;1.248;2022-10-16T04:09:30;16.08;;;9.38;;
51382;SDS011;37475;43.358;1.248;2022-10-16T04:11:56;14.55;;;10.18;;
51382;SDS011;37475;43.358;1.248;2022-10-16T04:14:22;16.35;;;9.10;;
51382;SDS011;37475;43.358;1.248;2022-10-16T04:16:48;15.30;;;9.40;;
51382;SDS011;37475;43.358;1.248;2022-10-16T04:19:13;14.65;;;9.10;;
51382;SDS011;37475;43.358;1.248;2022-10-16T04:21:39;14.52;;;9.93;;
51382;SDS011;37475;43.358;1.248;2022-10-16T04:24:05;16.27;;;9.30;;
51382;SDS011;37475;43.358;1.248;2022-10-16T04:26:31;13.70;;;9.15;;
51382;SDS011;37475;43.358;1.248;2022-10-16T04:28:56;13.50;;;8.70;;
51382;SDS011;37475;43.358;1.248;2022-10-16T04:31:22;14.45;;;8.90;;
51382;SDS011;37475;43.358;1.248;2022-10-16T04:33:48;15.80;;;8.70;;
51382;SDS011;37475;43.358;1.248;2022-10-16T04:36:14;13.07;;;8.70;;
51382;SDS011;37475;43.358;1.248;2022-10-16T04:38:39;11.90;;;8.15;;
51382;SDS011;37475;43.358;1.248;2022-10-16T04:41:06;11.85;;;8.18;;
51382;SDS011;37475;43.358;1.248;2022-10-16T04:43:33;13.77;;;8.38;;
51382;SDS011;37475;43.358;1.248;2022-10-16T04:45:59;13.73;;;8.75;;
51382;SDS011;37475;43.358;1.248;2022-10-16T04:48:25;13.07;;;7.90;;
51382;SDS011;37475;43.358;1.248;2022-10-16T04:50:51;13.40;;;8.60;;
51382;SDS011;37475;43.358;1.248;2022-10-16T04:53:17;14.05;;;7.97;;
51382;SDS011;37475;43.358;1.248;2022-10-16T04:55:43;14.10;;;8.25;;
51382;SDS011;37475;43.358;1.248;2022-10-16T04:58:09;16.63;;;8.05;;
51382;SDS011;37475;43.358;1.248;2022-10-16T05:00:35;13.23;;;8.55;;
51382;SDS011;37475;43.358;1.248;2022-10-16T05:03:01;13.15;;;8.23;;
51382;SDS011;37475;43.358;1.248;2022-10-16T05:05:30;11.13;;;8.23;;
51382;SDS011;37475;43.358;1.248;2022-10-16T05:07:56;11.00;;;7.53;;
51382;SDS011;37475;43.358;1.248;2022-10-16T05:10:22;13.65;;;8.27;;
51382;SDS011;37475;43.358;1.248;2022-10-16T05:12:48;12.85;;;7.63;;
51382;SDS011;37475;43.358;1.248;2022-10-16T05:15:14;10.25;;;7.85;;
51382;SDS011;37475;43.358;1.248;2022-10-16T05:17:40;10.93;;;7.65;;
51382;SDS011;37475;43.358;1.248;2022-10-16T05:20:06;12.23;;;8.05;;
51382;SDS011;37475;43.358;1.248;2022-10-16T05:22:32;14.90;;;7.95;;
51382;SDS011;37475;43.358;1.248;2022-10-16T05:24:58;12.82;;;8.02;;
51382;SDS011;37475;43.358;1.248;2022-10-16T05:27:24;14.95;;;7.80;;
51382;SDS011;37475;43.358;1.248;2022-10-16T05:29:50;14.00;;;8.05;;
51382;SDS011;37475;43.358;1.248;2022-10-16T05:32:16;13.90;;;8.13;;
51382;SDS011;37475;43.358;1.248;2022-10-16T05:34:43;11.68;;;7.97;;
51382;SDS011;37475;43.358;1.248;2022-10-16T05:37:10;12.43;;;8.32;;
51382;SDS011;37475;43.358;1.248;2022-10-16T05:39:37;13.68;;;8.18;;
51382;SDS011;37475;43.358;1.248;2022-10-16T05:42:04;12.55;;;7.95;;
51382;SDS011;37475;43.358;1.248;2022-10-16T05:44:30;12.18;;;8.05;;
51382;SDS011;37475;43.358;1.248;2022-10-16T05:46:56;12.77;;;8.38;;
51382;SDS011;37475;43.358;1.248;2022-10-16T05:49:22;11.30;;;7.93;;
51382;SDS011;37475;43.358;1.248;2022-10-16T05:51:48;11.52;;;7.88;;
51382;SDS011;37475;43.358;1.248;2022-10-16T05:54:14;11.63;;;7.95;;
51382;SDS011;37475;43.358;1.248;2022-10-16T05:56:40;11.02;;;7.90;;
51382;SDS011;37475;43.358;1.248;2022-10-16T05:59:05;13.27;;;7.78;;
51382;SDS011;37475;43.358;1.248;2022-10-16T06:01:32;14.32;;;8.93;;
51382;SDS011;37475;43.358;1.248;2022-10-16T06:03:58;13.18;;;8.25;;
51382;SDS011;37475;43.358;1.248;2022-10-16T06:06:25;10.57;;;7.85;;
51382;SDS011;37475;43.358;1.248;2022-10-16T06:08:53;11.30;;;8.13;;
51382;SDS011;37475;43.358;1.248;2022-10-16T06:11:21;12.93;;;8.32;;
51382;SDS011;37475;43.358;1.248;2022-10-16T06:13:54;11.23;;;7.80;;
51382;SDS011;37475;43.358;1.248;2022-10-16T06:16:22;13.52;;;8.13;;
51382;SDS011;37475;43.358;1.248;2022-10-16T06:18:53;14.35;;;7.72;;
51382;SDS011;37475;43.358;1.248;2022-10-16T06:21:27;11.10;;;7.25;;
51382;SDS011;37475;43.358;1.248;2022-10-16T06:23:54;10.88;;;7.70;;
51382;SDS011;37475;43.358;1.248;2022-10-16T06:26:22;11.48;;;7.80;;
51382;SDS011;37475;43.358;1.248;2022-10-16T06:28:51;11.73;;;7.57;;
51382;SDS011;37475;43.358;1.248;2022-10-16T06:31:20;10.68;;;7.53;;
51382;SDS011;37475;43.358;1.248;2022-10-16T06:33:49;11.02;;;7.80;;
51382;SDS011;37475;43.358;1.248;2022-10-16T06:36:16;13.50;;;7.57;;
51382;SDS011;37475;43.358;1.248;2022-10-16T06:38:43;11.98;;;7.10;;
51382;SDS011;37475;43.358;1.248;2022-10-16T06:41:11;12.07;;;7.22;;
51382;SDS011;37475;43.358;1.248;2022-10-16T06:43:42;9.82;;;6.90;;
51382;SDS011;37475;43.358;1.248;2022-10-16T06:46:12;11.50;;;7.60;;
51382;SDS011;37475;43.358;1.248;2022-10-16T06:48:41;10.48;;;7.28;;
51382;SDS011;37475;43.358;1.248;2022-10-16T06:53:41;8.48;;;6.75;;
51382;SDS011;37475;43.358;1.248;2022-10-16T06:56:14;9.88;;;6.88;;
51382;SDS011;37475;43.358;1.248;2022-10-16T06:58:43;13.25;;;7.82;;
51382;SDS011;37475;43.358;1.248;2022-10-16T07:01:10;11.10;;;7.13;;
51382;SDS011;37475;43.358;1.248;2022-10-16T07:03:37;12.10;;;6.88;;
51382;SDS011;37475;43.358;1.248;2022-10-16T07:06:06;13.48;;;7.35;;
51382;SDS011;37475;43.358;1.248;2022-10-16T07:08:35;10.18;;;7.25;;
51382;SDS011;37475;43.358;1.248;2022-10-16T07:11:04;12.45;;;7.22;;
51382;SDS011;37475;43.358;1.248;2022-10-16T07:13:33;10.45;;;6.43;;
51382;SDS011;37475;43.358;1.248;2022-10-16T07:16:05;11.95;;;6.82;;
51382;SDS011;37475;43.358;1.248;2022-10-16T07:18:36;9.45;;;6.80;;
51382;SDS011;37475;43.358;1.248;2022-10-16T07:21:15;10.32;;;6.70;;
51382;SDS011;37475;43.358;1.248;2022-10-16T07:23:50;10.32;;;7.07;;
51382;SDS011;37475;43.358;1.248;2022-10-16T07:26:21;11.82;;;7.30;;
51382;SDS011;37475;43.358;1.248;2022-10-16T07:28:48;9.38;;;6.95;;
51382;SDS011;37475;43.358;1.248;2022-10-16T07:31:14;8.77;;;6.93;;
51382;SDS011;37475;43.358;1.248;2022-10-16T07:33:42;10.98;;;7.00;;
51382;SDS011;37475;43.358;1.248;2022-10-16T07:36:10;8.70;;;6.50;;
51382;SDS011;37475;43.358;1.248;2022-10-16T07:38:37;11.07;;;6.38;;
51382;SDS011;37475;43.358;1.248;2022-10-16T07:41:07;10.65;;;6.18;;
51382;SDS011;37475;43.358;1.248;2022-10-16T07:43:37;9.07;;;6.22;;
51382;SDS011;37475;43.358;1.248;2022-10-16T07:46:03;9.82;;;6.15;;
51382;SDS011;37475;43.358;1.248;2022-10-16T07:48:30;9.93;;;6.50;;
51382;SDS011;37475;43.358;1.248;2022-10-16T07:50:59;8.88;;;6.18;;
51382;SDS011;37475;43.358;1.248;2022-10-16T07:53:26;9.88;;;6.35;;
51382;SDS011;37475;43.358;1.248;2022-10-16T07:55:54;10.35;;;6.57;;
51382;SDS011;37475;43.358;1.248;2022-10-16T07:58:29;9.00;;;6.13;;
51382;SDS011;37475;43.358;1.248;2022-10-16T08:00:56;10.13;;;5.82;;
51382;SDS011;37475;43.358;1.248;2022-10-16T08:03:23;10.90;;;6.45;;
51382;SDS011;37475;43.358;1.248;2022-10-16T08:05:50;8.13;;;6.00;;
51382;SDS011;37475;43.358;1.248;2022-10-16T08:08:17;9.35;;;5.82;;
51382;SDS011;37475;43.358;1.248;2022-10-16T08:10:43;8.80;;;5.85;;
51382;SDS011;37475;43.358;1.248;2022-10-16T08:13:10;8.43;;;5.25;;
51382;SDS011;37475;43.358;1.248;2022-10-16T08:15:36;10.68;;;5.55;;
51382;SDS011;37475;43.358;1.248;2022-10-16T08:18:03;8.18;;;5.88;;
51382;SDS011;37475;43.358;1.248;2022-10-16T08:20:30;9.88;;;5.60;;
51382;SDS011;37475;43.358;1.248;2022-10-16T08:22:58;10.43;;;5.65;;
51382;SDS011;37475;43.358;1.248;2022-10-16T08:25:25;7.82;;;5.13;;
51382;SDS011;37475;43.358;1.248;2022-10-16T08:27:52;11.32;;;5.82;;
51382;SDS011;37475;43.358;1.248;2022-10-16T08:30:18;9.63;;;5.75;;
51382;SDS011;37475;43.358;1.248;2022-10-16T08:32:46;11.10;;;5.70;;
51382;SDS011;37475;43.358;1.248;2022-10-16T08:35:12;10.35;;;5.60;;
51382;SDS011;37475;43.358;1.248;2022-10-16T08:37:40;11.30;;;5.45;;
51382;SDS011;37475;43.358;1.248;2022-10-16T08:40:07;9.23;;;5.32;;
51382;SDS011;37475;43.358;1.248;2022-10-16T08:48:56;8.45;;;5.40;;
51382;SDS011;37475;43.358;1.248;2022-10-16T08:54:02;10.27;;;5.60;;
51382;SDS011;37475;43.358;1.248;2022-10-16T08:56:44;8.15;;;4.95;;
51382;SDS011;37475;43.358;1.248;2022-10-16T08:59:10;10.07;;;4.95;;
51382;SDS011;37475;43.358;1.248;2022-10-16T09:01:41;12.75;;;5.63;;
51382;SDS011;37475;43.358;1.248;2022-10-16T09:07:49;9.32;;;5.00;;
51382;SDS011;37475;43.358;1.248;2022-10-16T09:13:03;7.63;;;5.07;;
51382;SDS011;37475;43.358;1.248;2022-10-16T09:18:12;15.68;;;5.55;;
51382;SDS011;37475;43.358;1.248;2022-10-16T09:21:01;8.65;;;4.90;;
51382;SDS011;37475;43.358;1.248;2022-10-16T09:23:49;10.55;;;5.30;;
51382;SDS011;37475;43.358;1.248;2022-10-16T09:26:16;11.10;;;5.43;;
51382;SDS011;37475;43.358;1.248;2022-10-16T09:28:44;12.63;;;4.80;;
51382;SDS011;37475;43.358;1.248;2022-10-16T09:31:13;9.65;;;4.47;;
51382;SDS011;37475;43.358;1.248;2022-10-16T09:33:52;9.50;;;4.60;;
51382;SDS011;37475;43.358;1.248;2022-10-16T09:36:23;9.68;;;4.43;;
51382;SDS011;37475;43.358;1.248;2022-10-16T09:39:01;10.00;;;4.38;;
51382;SDS011;37475;43.358;1.248;2022-10-16T09:41:35;7.37;;;4.30;;
51382;SDS011;37475;43.358;1.248;2022-10-16T09:44:06;7.70;;;4.40;;
51382;SDS011;37475;43.358;1.248;2022-10-16T09:47:03;10.30;;;4.53;;
51382;SDS011;37475;43.358;1.248;2022-10-16T09:49:36;6.82;;;4.40;;
51382;SDS011;37475;43.358;1.248;2022-10-16T09:57:52;9.85;;;4.35;;
51382;SDS011;37475;43.358;1.248;2022-10-16T10:00:19;8.70;;;4.28;;
51382;SDS011;37475;43.358;1.248;2022-10-16T10:02:47;6.57;;;4.30;;
51382;SDS011;37475;43.358;1.248;2022-10-16T10:08:00;6.20;;;4.00;;
51382;SDS011;37475;43.358;1.248;2022-10-16T10:10:32;11.73;;;4.43;;
51382;SDS011;37475;43.358;1.248;2022-10-16T10:13:20;9.40;;;4.03;;
51382;SDS011;37475;43.358;1.248;2022-10-16T10:15:48;8.75;;;4.13;;
51382;SDS011;37475;43.358;1.248;2022-10-16T10:18:16;5.43;;;3.80;;
51382;SDS011;37475;43.358;1.248;2022-10-16T10:21:12;8.25;;;4.50;;
51382;SDS011;37475;43.358;1.248;2022-10-16T10:23:40;5.55;;;3.55;;
51382;SDS011;37475;43.358;1.248;2022-10-16T10:37:02;7.57;;;3.60;;
51382;SDS011;37475;43.358;1.248;2022-10-16T10:43:21;9.63;;;3.35;;
51382;SDS011;37475;43.358;1.248;2022-10-16T10:45:52;7.10;;;3.40;;
51382;SDS011;37475;43.358;1.248;2022-10-16T10:51:24;8.68;;;3.88;;
51382;SDS011;37475;43.358;1.248;2022-10-16T10:54:25;6.75;;;3.38;;
51382;SDS011;37475;43.358;1.248;2022-10-16T10:57:19;6.45;;;3.72;;
51382;SDS011;37475;43.358;1.248;2022-10-16T10:59:57;5.95;;;3.20;;
51382;SDS011;37475;43.358;1.248;2022-10-16T11:02:37;9.23;;;3.60;;
51382;SDS011;37475;43.358;1.248;2022-10-16T11:05:58;8.07;;;3.40;;
51382;SDS011;37475;43.358;1.248;2022-10-16T11:08:44;8.50;;;3.42;;
51382;SDS011;37475;43.358;1.248;2022-10-16T11:14:00;6.22;;;3.35;;
51382;SDS011;37475;43.358;1.248;2022-10-16T11:16:52;8.00;;;3.65;;
51382;SDS011;37475;43.358;1.248;2022-10-16T11:19:46;8.10;;;3.58;;
51382;SDS011;37475;43.358;1.248;2022-10-16T11:22:30;10.15;;;3.67;;
51382;SDS011;37475;43.358;1.248;2022-10-16T11:25:13;8.35;;;3.50;;
51382;SDS011;37475;43.358;1.248;2022-10-16T11:27:58;9.27;;;3.70;;
51382;SDS011;37475;43.358;1.248;2022-10-16T11:36:42;9.50;;;3.88;;
51382;SDS011;37475;43.358;1.248;2022-10-16T11:39:28;7.38;;;3.55;;
51382;SDS011;37475;43.358;1.248;2022-10-16T11:48:04;8.20;;;3.88;;
51382;SDS011;37475;43.358;1.248;2022-10-16T11:50:54;13.27;;;3.70;;
51382;SDS011;37475;43.358;1.248;2022-10-16T11:53:50;7.82;;;3.92;;
51382;SDS011;37475;43.358;1.248;2022-10-16T11:56:45;5.28;;;3.33;;
51382;SDS011;37475;43.358;1.248;2022-10-16T11:59:23;11.05;;;3.63;;
51382;SDS011;37475;43.358;1.248;2022-10-16T12:02:36;9.18;;;3.72;;
51382;SDS011;37475;43.358;1.248;2022-10-16T12:05:35;12.68;;;3.70;;
51382;SDS011;37475;43.358;1.248;2022-10-16T12:08:23;19.55;;;4.25;;
51382;SDS011;37475;43.358;1.248;2022-10-16T12:10:50;14.35;;;4.15;;
51382;SDS011;37475;43.358;1.248;2022-10-16T12:18:40;9.48;;;3.95;;
51382;SDS011;37475;43.358;1.248;2022-10-16T12:21:08;12.10;;;4.00;;
51382;SDS011;37475;43.358;1.248;2022-10-16T12:24:00;6.82;;;3.92;;
51382;SDS011;37475;43.358;1.248;2022-10-16T12:26:26;10.10;;;4.30;;
51382;SDS011;37475;43.358;1.248;2022-10-16T12:30:04;9.57;;;4.13;;
51382;SDS011;37475;43.358;1.248;2022-10-16T12:32:00;14.73;;;4.22;;
51382;SDS011;37475;43.358;1.248;2022-10-16T12:34:32;21.05;;;4.57;;
51382;SDS011;37475;43.358;1.248;2022-10-16T12:37:08;11.02;;;3.97;;
51382;SDS011;37475;43.358;1.248;2022-10-16T12:39:39;9.93;;;3.60;;
51382;SDS011;37475;43.358;1.248;2022-10-16T12:42:19;10.43;;;3.90;;
51382;SDS011;37475;43.358;1.248;2022-10-16T12:44:58;13.13;;;4.30;;
51382;SDS011;37475;43.358;1.248;2022-10-16T12:49:56;9.17;;;3.67;;
51382;SDS011;37475;43.358;1.248;2022-10-16T12:52:28;8.90;;;3.95;;
51382;SDS011;37475;43.358;1.248;2022-10-16T12:55:04;7.40;;;3.67;;
51382;SDS011;37475;43.358;1.248;2022-10-16T13:00:54;11.77;;;4.18;;
51382;SDS011;37475;43.358;1.248;2022-10-16T13:14:59;7.78;;;3.33;;
51382;SDS011;37475;43.358;1.248;2022-10-16T13:28:49;6.85;;;3.50;;
51382;SDS011;37475;43.358;1.248;2022-10-16T13:31:22;8.20;;;3.35;;
51382;SDS011;37475;43.358;1.248;2022-10-16T13:33:51;10.70;;;3.38;;
51382;SDS011;37475;43.358;1.248;2022-10-16T13:38:48;9.57;;;3.75;;
51382;SDS011;37475;43.358;1.248;2022-10-16T13:41:57;8.10;;;3.42;;
51382;SDS011;37475;43.358;1.248;2022-10-16T13:44:36;5.20;;;2.88;;
51382;SDS011;37475;43.358;1.248;2022-10-16T13:47:20;8.45;;;3.35;;
51382;SDS011;37475;43.358;1.248;2022-10-16T13:50:01;12.05;;;3.35;;
51382;SDS011;37475;43.358;1.248;2022-10-16T13:52:42;7.82;;;3.20;;
51382;SDS011;37475;43.358;1.248;2022-10-16T13:57:43;9.75;;;2.80;;
51382;SDS011;37475;43.358;1.248;2022-10-16T14:00:20;8.73;;;2.78;;
51382;SDS011;37475;43.358;1.248;2022-10-16T14:03:04;4.75;;;2.75;;
51382;SDS011;37475;43.358;1.248;2022-10-16T14:05:49;9.23;;;3.25;;
51382;SDS011;37475;43.358;1.248;2022-10-16T14:08:18;6.45;;;2.78;;
51382;SDS011;37475;43.358;1.248;2022-10-16T14:10:47;7.88;;;2.97;;
51382;SDS011;37475;43.358;1.248;2022-10-16T14:13:20;6.18;;;2.95;;
51382;SDS011;37475;43.358;1.248;2022-10-16T14:16:00;7.53;;;2.38;;
51382;SDS011;37475;43.358;1.248;2022-10-16T14:18:32;7.40;;;2.97;;
51382;SDS011;37475;43.358;1.248;2022-10-16T14:21:03;8.07;;;2.92;;
51382;SDS011;37475;43.358;1.248;2022-10-16T14:26:06;8.02;;;2.70;;
51382;SDS011;37475;43.358;1.248;2022-10-16T14:28:40;8.32;;;2.63;;
51382;SDS011;37475;43.358;1.248;2022-10-16T14:33:55;6.85;;;2.78;;
51382;SDS011;37475;43.358;1.248;2022-10-16T14:36:22;6.45;;;2.78;;
51382;SDS011;37475;43.358;1.248;2022-10-16T14:38:49;7.00;;;2.58;;
51382;SDS011;37475;43.358;1.248;2022-10-16T14:41:47;5.38;;;3.00;;
51382;SDS011;37475;43.358;1.248;2022-10-16T14:44:17;9.60;;;2.80;;
51382;SDS011;37475;43.358;1.248;2022-10-16T14:46:44;6.45;;;2.60;;
51382;SDS011;37475;43.358;1.248;2022-10-16T14:51:40;5.15;;;2.55;;
51382;SDS011;37475;43.358;1.248;2022-10-16T14:54:09;4.80;;;2.70;;
51382;SDS011;37475;43.358;1.248;2022-10-16T14:56:49;8.88;;;2.70;;
51382;SDS011;37475;43.358;1.248;2022-10-16T14:59:27;7.45;;;2.83;;
51382;SDS011;37475;43.358;1.248;2022-10-16T15:01:58;8.07;;;2.70;;
51382;SDS011;37475;43.358;1.248;2022-10-16T15:04:24;7.85;;;2.58;;
51382;SDS011;37475;43.358;1.248;2022-10-16T15:06:50;7.85;;;2.60;;
51382;SDS011;37475;43.358;1.248;2022-10-16T15:09:16;8.50;;;2.40;;
51382;SDS011;37475;43.358;1.248;2022-10-16T15:11:42;8.40;;;2.65;;
51382;SDS011;37475;43.358;1.248;2022-10-16T15:14:11;6.85;;;2.30;;
51382;SDS011;37475;43.358;1.248;2022-10-16T15:16:38;7.05;;;2.22;;
51382;SDS011;37475;43.358;1.248;2022-10-16T15:19:04;9.20;;;2.50;;
51382;SDS011;37475;43.358;1.248;2022-10-16T15:21:31;7.53;;;2.30;;
51382;SDS011;37475;43.358;1.248;2022-10-16T15:23:58;7.90;;;2.15;;
51382;SDS011;37475;43.358;1.248;2022-10-16T15:26:26;6.90;;;2.20;;
51382;SDS011;37475;43.358;1.248;2022-10-16T15:28:53;9.00;;;2.28;;
51382;SDS011;37475;43.358;1.248;2022-10-16T15:31:19;6.13;;;2.05;;
51382;SDS011;37475;43.358;1.248;2022-10-16T15:33:48;5.85;;;2.00;;
51382;SDS011;37475;43.358;1.248;2022-10-16T15:36:30;6.47;;;2.10;;
51382;SDS011;37475;43.358;1.248;2022-10-16T15:38:59;5.75;;;2.25;;
51382;SDS011;37475;43.358;1.248;2022-10-16T15:41:25;12.32;;;2.25;;
51382;SDS011;37475;43.358;1.248;2022-10-16T15:43:51;9.57;;;2.45;;
51382;SDS011;37475;43.358;1.248;2022-10-16T15:46:18;9.32;;;2.22;;
51382;SDS011;37475;43.358;1.248;2022-10-16T15:48:46;9.40;;;2.10;;
51382;SDS011;37475;43.358;1.248;2022-10-16T15:51:17;7.55;;;2.13;;
51382;SDS011;37475;43.358;1.248;2022-10-16T15:53:43;6.05;;;2.10;;
51382;SDS011;37475;43.358;1.248;2022-10-16T15:56:11;8.68;;;2.10;;
51382;SDS011;37475;43.358;1.248;2022-10-16T15:58:38;8.90;;;2.45;;
51382;SDS011;37475;43.358;1.248;2022-10-16T16:01:04;7.35;;;2.10;;
51382;SDS011;37475;43.358;1.248;2022-10-16T16:03:31;5.57;;;2.13;;
51382;SDS011;37475;43.358;1.248;2022-10-16T16:05:57;9.40;;;2.30;;
51382;SDS011;37475;43.358;1.248;2022-10-16T16:08:28;6.75;;;2.10;;
51382;SDS011;37475;43.358;1.248;2022-10-16T16:10:58;6.88;;;2.10;;
51382;SDS011;37475;43.358;1.248;2022-10-16T16:13:29;8.25;;;2.30;;
51382;SDS011;37475;43.358;1.248;2022-10-16T16:15:55;7.30;;;2.30;;
51382;SDS011;37475;43.358;1.248;2022-10-16T16:18:21;6.72;;;2.15;;
51382;SDS011;37475;43.358;1.248;2022-10-16T16:20:48;8.38;;;2.50;;
51382;SDS011;37475;43.358;1.248;2022-10-16T16:23:15;6.25;;;2.20;;
51382;SDS011;37475;43.358;1.248;2022-10-16T16:25:41;7.85;;;2.38;;
51382;SDS011;37475;43.358;1.248;2022-10-16T16:28:07;10.77;;;2.78;;
51382;SDS011;37475;43.358;1.248;2022-10-16T16:30:35;7.18;;;2.55;;
51382;SDS011;37475;43.358;1.248;2022-10-16T16:33:02;10.73;;;2.60;;
51382;SDS011;37475;43.358;1.248;2022-10-16T16:35:28;8.90;;;2.42;;
51382;SDS011;37475;43.358;1.248;2022-10-16T16:37:54;6.65;;;2.50;;
51382;SDS011;37475;43.358;1.248;2022-10-16T16:40:20;14.63;;;3.03;;
51382;SDS011;37475;43.358;1.248;2022-10-16T16:42:47;10.00;;;2.95;;
51382;SDS011;37475;43.358;1.248;2022-10-16T16:45:14;9.18;;;3.00;;
51382;SDS011;37475;43.358;1.248;2022-10-16T16:47:40;8.75;;;2.92;;
51382;SDS011;37475;43.358;1.248;2022-10-16T16:50:06;14.02;;;2.85;;
51382;SDS011;37475;43.358;1.248;2022-10-16T16:52:34;11.70;;;2.78;;
51382;SDS011;37475;43.358;1.248;2022-10-16T16:55:00;9.40;;;2.88;;
51382;SDS011;37475;43.358;1.248;2022-10-16T16:57:26;8.95;;;2.67;;
51382;SDS011;37475;43.358;1.248;2022-10-16T16:59:52;10.55;;;3.10;;
51382;SDS011;37475;43.358;1.248;2022-10-16T17:02:18;9.43;;;3.03;;
51382;SDS011;37475;43.358;1.248;2022-10-16T17:04:44;11.10;;;3.22;;
51382;SDS011;37475;43.358;1.248;2022-10-16T17:07:10;11.15;;;2.85;;
51382;SDS011;37475;43.358;1.248;2022-10-16T17:09:35;11.77;;;3.20;;
51382;SDS011;37475;43.358;1.248;2022-10-16T17:12:01;9.05;;;2.90;;